createdAt,value
2023-05-12T00:00:46.815Z,21.86
2023-05-12T00:01:46.844Z,21.86
2023-05-12T00:02:46.950Z,21.86
2023-05-12T00:03:47.204Z,21.84
2023-05-12T00:04:47.014Z,21.85
2023-05-12T00:05:46.938Z,21.84
2023-05-12T00:06:46.958Z,21.84
2023-05-12T00:07:47.034Z,21.84
2023-05-12T00:08:46.989Z,21.84
2023-05-12T00:09:47.022Z,21.84
2023-05-12T00:10:47.060Z,21.84
2023-05-12T00:11:47.086Z,21.84
2023-05-12T00:12:47.125Z,21.84
2023-05-12T00:13:47.188Z,21.84
2023-05-12T00:14:47.145Z,21.85
2023-05-12T00:15:47.174Z,21.84
2023-05-12T00:16:47.301Z,21.84
2023-05-12T00:17:47.315Z,21.84
2023-05-12T00:18:47.291Z,21.84
2023-05-12T00:19:47.245Z,21.84
2023-05-12T00:20:47.319Z,21.83
2023-05-12T00:21:47.290Z,21.85
2023-05-12T00:22:47.316Z,21.85
2023-05-12T00:23:47.321Z,21.84
2023-05-12T00:24:47.333Z,21.84
2023-05-12T00:25:47.364Z,21.84
2023-05-12T00:26:47.371Z,21.84
2023-05-12T00:27:47.400Z,21.83
2023-05-12T00:28:47.426Z,21.83
2023-05-12T00:29:47.442Z,21.83
2023-05-12T00:30:47.475Z,21.82
2023-05-12T00:31:47.547Z,21.82
2023-05-12T00:32:47.541Z,21.81
2023-05-12T00:33:47.547Z,21.82
2023-05-12T00:34:47.552Z,21.82
2023-05-12T00:35:47.584Z,21.82
2023-05-12T00:36:47.582Z,21.81
2023-05-12T00:37:47.616Z,21.81
2023-05-12T00:38:47.636Z,21.81
2023-05-12T00:39:47.652Z,21.81
2023-05-12T00:40:47.693Z,21.81
2023-05-12T00:41:47.704Z,21.81
2023-05-12T00:42:47.734Z,21.80
2023-05-12T00:43:47.737Z,21.81
2023-05-12T00:44:47.854Z,21.80
2023-05-12T00:45:47.789Z,21.80
2023-05-12T00:46:47.803Z,21.79
2023-05-12T00:47:47.864Z,21.80
2023-05-12T00:48:47.853Z,21.81
2023-05-12T00:49:47.876Z,21.81
2023-05-12T00:50:47.930Z,21.81
2023-05-12T00:51:47.925Z,21.82
2023-05-12T00:52:47.928Z,21.81
2023-05-12T00:53:50.199Z,21.80
2023-05-12T00:54:47.990Z,21.80
2023-05-12T00:55:47.995Z,21.80
2023-05-12T00:56:48.026Z,21.79
2023-05-12T00:57:48.055Z,21.79
2023-05-12T00:58:48.068Z,21.79
2023-05-12T00:59:48.204Z,21.80
2023-05-12T01:00:48.240Z,21.79
2023-05-12T01:01:48.140Z,21.79
2023-05-12T01:02:48.275Z,21.80
2023-05-12T01:03:48.217Z,21.79
2023-05-12T01:04:48.209Z,21.79
2023-05-12T01:05:48.202Z,21.78
2023-05-12T01:06:48.177Z,21.78
2023-05-12T01:07:48.170Z,21.79
2023-05-12T01:08:48.144Z,21.78
2023-05-12T01:09:48.122Z,21.78
2023-05-12T01:10:48.122Z,21.79
2023-05-12T01:11:48.132Z,21.79
2023-05-12T01:12:48.094Z,21.78
2023-05-12T01:13:48.057Z,21.78
2023-05-12T01:14:48.056Z,21.77
2023-05-12T01:15:48.039Z,21.77
2023-05-12T01:16:48.053Z,21.77
2023-05-12T01:17:48.157Z,21.77
2023-05-12T01:18:48.007Z,21.77
2023-05-12T01:19:47.970Z,21.76
2023-05-12T01:20:47.971Z,21.77
2023-05-12T01:21:47.936Z,21.76
2023-05-12T01:22:47.909Z,21.76
2023-05-12T01:23:47.935Z,21.76
2023-05-12T01:24:47.884Z,21.76
2023-05-12T01:25:47.852Z,21.76
2023-05-12T01:26:47.839Z,21.77
2023-05-12T01:27:47.816Z,21.76
2023-05-12T01:28:47.805Z,21.76
2023-05-12T01:29:47.777Z,21.76
2023-05-12T01:30:47.822Z,21.76
2023-05-12T01:31:47.907Z,21.75
2023-05-12T01:32:47.771Z,21.75
2023-05-12T01:33:47.714Z,21.74
2023-05-12T01:34:47.685Z,21.74
2023-05-12T01:35:47.715Z,21.73
2023-05-12T01:36:47.722Z,21.73
2023-05-12T01:37:47.754Z,21.74
2023-05-12T01:38:47.787Z,21.74
2023-05-12T01:39:47.813Z,21.74
2023-05-12T01:40:47.826Z,21.73
2023-05-12T01:41:47.860Z,21.73
2023-05-12T01:42:47.887Z,21.74
2023-05-12T01:43:47.897Z,21.74
2023-05-12T01:44:47.974Z,21.73
2023-05-12T01:45:47.975Z,21.73
2023-05-12T01:46:48.032Z,21.73
2023-05-12T01:47:48.157Z,21.72
2023-05-12T01:48:48.040Z,21.72
2023-05-12T01:49:48.069Z,21.72
2023-05-12T01:50:48.153Z,21.72
2023-05-12T01:51:48.112Z,21.73
2023-05-12T01:52:48.146Z,21.73
2023-05-12T01:53:48.150Z,21.73
2023-05-12T01:54:48.119Z,21.73
2023-05-12T01:55:48.099Z,21.73
2023-05-12T01:56:48.107Z,21.73
2023-05-12T01:57:48.082Z,21.73
2023-05-12T01:58:48.094Z,21.74
2023-05-12T01:59:48.059Z,21.73
2023-05-12T02:00:48.024Z,21.74
2023-05-12T02:01:48.061Z,21.73
2023-05-12T02:02:48.065Z,21.73
2023-05-12T02:03:48.108Z,21.73
2023-05-12T02:04:47.964Z,21.73
2023-05-12T02:05:47.954Z,21.73
2023-05-12T02:06:47.966Z,21.74
2023-05-12T02:07:47.999Z,21.73
2023-05-12T02:08:48.098Z,21.73
2023-05-12T02:09:48.068Z,21.72
2023-05-12T02:10:48.067Z,21.72
2023-05-12T02:11:48.097Z,21.72
2023-05-12T02:12:48.119Z,21.71
2023-05-12T02:13:48.151Z,21.71
2023-05-12T02:14:48.186Z,21.72
2023-05-12T02:15:48.210Z,21.72
2023-05-12T02:16:48.392Z,21.72
2023-05-12T02:17:48.314Z,21.72
2023-05-12T02:18:48.398Z,21.72
2023-05-12T02:19:48.337Z,21.71
2023-05-12T02:20:48.376Z,21.71
2023-05-12T02:21:48.462Z,21.71
2023-05-12T02:22:48.423Z,21.70
2023-05-12T02:23:48.453Z,21.70
2023-05-12T02:24:48.493Z,21.70
2023-05-12T02:25:48.520Z,21.70
2023-05-12T02:26:48.547Z,21.69
2023-05-12T02:27:48.581Z,21.69
2023-05-12T02:28:48.599Z,21.68
2023-05-12T02:29:48.624Z,21.69
2023-05-12T02:30:48.710Z,21.68
2023-05-12T02:31:48.718Z,21.69
2023-05-12T02:32:48.783Z,21.68
2023-05-12T02:33:48.761Z,21.68
2023-05-12T02:34:48.795Z,21.68
2023-05-12T02:35:48.807Z,21.69
2023-05-12T02:36:48.843Z,21.69
2023-05-12T02:37:48.877Z,21.69
2023-05-12T02:38:48.909Z,21.69
2023-05-12T02:39:48.918Z,21.69
2023-05-12T02:40:48.953Z,21.69
2023-05-12T02:41:48.976Z,21.69
2023-05-12T02:42:49.009Z,21.68
2023-05-12T02:43:49.029Z,21.69
2023-05-12T02:44:49.060Z,21.69
2023-05-12T02:45:49.126Z,21.69
2023-05-12T02:46:49.154Z,21.69
2023-05-12T02:47:49.196Z,21.69
2023-05-12T02:48:49.176Z,21.68
2023-05-12T02:49:49.212Z,21.68
2023-05-12T02:50:49.242Z,21.68
2023-05-12T02:51:49.268Z,21.67
2023-05-12T02:52:49.301Z,21.68
2023-05-12T02:53:49.287Z,21.68
2023-05-12T02:54:49.267Z,21.68
2023-05-12T02:55:49.238Z,21.67
2023-05-12T02:56:49.217Z,21.68
2023-05-12T02:57:49.194Z,21.67
2023-05-12T02:58:49.191Z,21.67
2023-05-12T02:59:49.178Z,21.67
2023-05-12T03:00:56.897Z,21.66
2023-05-12T03:01:50.190Z,21.66
2023-05-12T03:02:49.172Z,21.66
2023-05-12T03:03:49.230Z,21.66
2023-05-12T03:04:49.057Z,21.66
2023-05-12T03:05:49.050Z,21.67
2023-05-12T03:06:49.032Z,21.66
2023-05-12T03:07:49.009Z,21.67
2023-05-12T03:08:49.016Z,21.66
2023-05-12T03:09:48.992Z,21.66
2023-05-12T03:10:48.971Z,21.65
2023-05-12T03:11:48.955Z,21.66
2023-05-12T03:12:48.938Z,21.65
2023-05-12T03:13:48.977Z,21.65
2023-05-12T03:14:49.000Z,21.66
2023-05-12T03:15:49.034Z,21.65
2023-05-12T03:16:49.133Z,21.66
2023-05-12T03:17:49.107Z,21.65
2023-05-12T03:18:49.164Z,21.65
2023-05-12T03:19:49.047Z,21.65
2023-05-12T03:20:49.025Z,21.65
2023-05-12T03:21:49.013Z,21.65
2023-05-12T03:22:49.007Z,21.65
2023-05-12T03:23:48.987Z,21.64
2023-05-12T03:24:48.982Z,21.64
2023-05-12T03:25:48.958Z,21.64
2023-05-12T03:26:48.938Z,21.64
2023-05-12T03:27:48.927Z,21.64
2023-05-12T03:28:48.920Z,21.63
2023-05-12T03:29:48.901Z,21.63
2023-05-12T03:30:48.888Z,21.63
2023-05-12T03:31:48.948Z,21.64
2023-05-12T03:32:48.904Z,21.63
2023-05-12T03:33:48.845Z,21.64
2023-05-12T03:34:48.834Z,21.63
2023-05-12T03:35:48.828Z,21.63
2023-05-12T03:36:48.835Z,21.63
2023-05-12T03:37:48.882Z,21.63
2023-05-12T03:38:48.900Z,21.62
2023-05-12T03:39:48.949Z,21.62
2023-05-12T03:40:48.989Z,21.62
2023-05-12T03:41:49.024Z,21.62
2023-05-12T03:42:49.058Z,21.62
2023-05-12T03:43:49.096Z,21.62
2023-05-12T03:44:49.114Z,21.63
2023-05-12T03:45:49.143Z,21.62
2023-05-12T03:46:49.225Z,21.62
2023-05-12T03:47:49.282Z,21.62
2023-05-12T03:48:49.247Z,21.61
2023-05-12T03:49:49.288Z,21.62
2023-05-12T03:50:49.321Z,21.61
2023-05-12T03:51:49.349Z,21.62
2023-05-12T03:52:49.384Z,21.62
2023-05-12T03:53:49.362Z,21.62
2023-05-12T03:54:49.360Z,21.62
2023-05-12T03:55:49.352Z,21.62
2023-05-12T03:56:49.338Z,21.62
2023-05-12T03:57:49.322Z,21.62
2023-05-12T03:58:49.314Z,21.61
2023-05-12T03:59:49.309Z,21.60
2023-05-12T04:00:49.305Z,21.61
2023-05-12T04:01:49.344Z,21.61
2023-05-12T04:02:49.359Z,21.60
2023-05-12T04:03:49.417Z,21.60
2023-05-12T04:04:49.260Z,21.59
2023-05-12T04:05:49.254Z,21.58
2023-05-12T04:06:49.273Z,21.61
2023-05-12T04:07:49.243Z,21.60
2023-05-12T04:08:49.232Z,21.59
2023-05-12T04:09:49.220Z,21.60
2023-05-12T04:10:49.200Z,21.59
2023-05-12T04:11:49.244Z,21.60
2023-05-12T04:12:49.273Z,21.61
2023-05-12T04:13:49.294Z,21.60
2023-05-12T04:14:49.335Z,21.61
2023-05-12T04:15:49.361Z,21.60
2023-05-12T04:16:49.497Z,21.61
2023-05-12T04:17:49.468Z,21.61
2023-05-12T04:18:49.531Z,21.62
2023-05-12T04:19:49.500Z,21.60
2023-05-12T04:20:49.525Z,21.58
2023-05-12T04:21:49.578Z,21.58
2023-05-12T04:22:49.594Z,21.59
2023-05-12T04:23:49.629Z,21.59
2023-05-12T04:24:49.672Z,21.59
2023-05-12T04:25:49.681Z,21.59
2023-05-12T04:26:49.720Z,21.59
2023-05-12T04:27:49.761Z,21.60
2023-05-12T04:28:49.801Z,21.60
2023-05-12T04:29:49.813Z,21.60
2023-05-12T04:30:49.852Z,21.60
2023-05-12T04:31:49.929Z,21.60
2023-05-12T04:32:49.966Z,21.61
2023-05-12T04:33:49.928Z,21.61
2023-05-12T04:34:49.972Z,21.60
2023-05-12T04:35:50.008Z,21.60
2023-05-12T04:36:50.030Z,21.60
2023-05-12T04:37:50.058Z,21.60
2023-05-12T04:38:50.096Z,21.60
2023-05-12T04:39:50.124Z,21.60
2023-05-12T04:40:50.161Z,21.59
2023-05-12T04:41:50.193Z,21.60
2023-05-12T04:42:50.176Z,21.59
2023-05-12T04:44:50.183Z,21.58
2023-05-12T04:45:50.168Z,21.59
2023-05-12T04:46:50.132Z,21.59
2023-05-12T04:47:50.121Z,21.59
2023-05-12T04:48:50.106Z,21.58
2023-05-12T04:49:50.098Z,21.59
2023-05-12T04:50:50.092Z,21.60
2023-05-12T04:51:50.076Z,21.59
2023-05-12T04:52:50.064Z,21.59
2023-05-12T04:53:50.063Z,21.59
2023-05-12T04:54:50.044Z,21.60
2023-05-12T04:55:50.028Z,21.60
2023-05-12T04:56:50.030Z,21.59
2023-05-12T04:57:50.001Z,21.59
2023-05-12T04:58:49.989Z,21.62
2023-05-12T04:59:49.981Z,21.61
2023-05-12T05:00:49.958Z,21.62
2023-05-12T05:01:49.997Z,21.63
2023-05-12T05:02:49.986Z,21.63
2023-05-12T05:03:50.110Z,21.63
2023-05-12T05:04:49.936Z,21.64
2023-05-12T05:05:49.969Z,21.64
2023-05-12T05:06:50.025Z,21.64
2023-05-12T05:07:50.026Z,21.64
2023-05-12T05:08:50.077Z,21.65
2023-05-12T05:09:50.094Z,21.64
2023-05-12T05:10:50.133Z,21.65
2023-05-12T05:11:50.161Z,21.64
2023-05-12T05:12:50.174Z,21.64
2023-05-12T05:13:50.234Z,21.64
2023-05-12T05:14:50.244Z,21.65
2023-05-12T05:15:50.324Z,21.65
2023-05-12T05:16:50.349Z,21.64
2023-05-12T05:17:50.404Z,21.65
2023-05-12T05:18:50.396Z,21.64
2023-05-12T05:19:58.517Z,21.65
2023-05-12T05:20:57.356Z,21.63
2023-05-12T05:21:51.375Z,21.62
2023-05-12T05:22:50.361Z,21.63
2023-05-12T05:23:50.350Z,21.63
2023-05-12T05:24:50.332Z,21.63
2023-05-12T05:25:50.299Z,21.63
2023-05-12T05:26:50.292Z,21.63
2023-05-12T05:27:50.314Z,21.64
2023-05-12T05:28:50.260Z,21.64
2023-05-12T05:29:50.263Z,21.63
2023-05-12T05:30:50.263Z,21.63
2023-05-12T05:31:50.262Z,21.63
2023-05-12T05:32:50.225Z,21.63
2023-05-12T05:33:50.263Z,21.63
2023-05-12T05:34:50.174Z,21.63
2023-05-12T05:35:50.165Z,21.63
2023-05-12T05:36:50.142Z,21.63
2023-05-12T05:37:50.171Z,21.63
2023-05-12T05:38:50.112Z,21.64
2023-05-12T05:39:50.109Z,21.66
2023-05-12T05:40:53.630Z,21.66
2023-05-12T05:41:50.082Z,21.68
2023-05-12T05:42:50.074Z,21.74
2023-05-12T05:43:50.047Z,21.78
2023-05-12T05:44:50.034Z,21.83
2023-05-12T05:45:50.297Z,21.87
2023-05-12T05:46:49.997Z,21.92
2023-05-12T05:47:50.068Z,21.96
2023-05-12T05:48:49.948Z,21.99
2023-05-12T05:49:49.954Z,22.03
2023-05-12T05:50:49.919Z,22.07
2023-05-12T05:51:49.895Z,22.10
2023-05-12T05:52:49.893Z,22.13
2023-05-12T05:53:49.923Z,22.17
2023-05-12T05:54:49.828Z,22.20
2023-05-12T05:55:49.805Z,22.23
2023-05-12T05:56:49.791Z,22.26
2023-05-12T05:57:49.792Z,22.28
2023-05-12T05:58:49.728Z,22.29
2023-05-12T05:59:49.724Z,22.32
2023-05-12T06:00:49.693Z,22.35
2023-05-12T06:01:49.800Z,22.37
2023-05-12T06:02:49.945Z,22.41
2023-05-12T06:03:49.767Z,22.44
2023-05-12T06:04:49.598Z,22.45
2023-05-12T06:05:49.568Z,22.48
2023-05-12T06:06:49.550Z,22.49
2023-05-12T06:07:49.520Z,22.51
2023-05-12T06:08:49.479Z,22.53
2023-05-12T06:09:49.467Z,22.56
2023-05-12T06:10:49.433Z,22.57
2023-05-12T06:11:49.397Z,22.61
2023-05-12T06:12:49.444Z,22.62
2023-05-12T06:13:49.365Z,22.63
2023-05-12T06:14:49.313Z,22.66
2023-05-12T06:15:49.280Z,22.68
2023-05-12T06:16:49.323Z,22.70
2023-05-12T06:17:49.261Z,22.71
2023-05-12T06:18:49.228Z,22.72
2023-05-12T06:19:49.137Z,22.75
2023-05-12T06:20:49.113Z,22.78
2023-05-12T06:21:49.112Z,22.79
2023-05-12T06:22:49.055Z,22.81
2023-05-12T06:23:49.017Z,22.83
2023-05-12T06:24:48.984Z,22.85
2023-05-12T06:25:48.947Z,22.86
2023-05-12T06:26:48.920Z,22.87
2023-05-12T06:27:48.885Z,22.88
2023-05-12T06:28:48.848Z,22.90
2023-05-12T06:29:48.835Z,22.92
2023-05-12T06:30:48.869Z,22.94
2023-05-12T06:31:48.933Z,22.95
2023-05-12T06:32:49.038Z,22.97
2023-05-12T06:33:48.956Z,22.99
2023-05-12T06:34:48.983Z,23.00
2023-05-12T06:35:49.055Z,23.02
2023-05-12T06:36:49.040Z,23.04
2023-05-12T06:37:49.086Z,23.05
2023-05-12T06:38:49.134Z,23.06
2023-05-12T06:39:49.142Z,23.07
2023-05-12T06:40:49.171Z,23.08
2023-05-12T06:41:49.200Z,23.06
2023-05-12T06:42:49.366Z,23.04
2023-05-12T06:43:49.305Z,23.04
2023-05-12T06:44:49.328Z,23.04
2023-05-12T06:45:49.410Z,23.05
2023-05-12T06:46:49.463Z,23.07
2023-05-12T06:47:49.446Z,23.07
2023-05-12T06:48:49.549Z,23.06
2023-05-12T06:49:49.458Z,23.04
2023-05-12T06:50:49.485Z,23.04
2023-05-12T06:51:49.521Z,23.03
2023-05-12T06:52:49.549Z,23.02
2023-05-12T06:53:49.566Z,23.00
2023-05-12T06:54:49.546Z,22.98
2023-05-12T06:55:49.551Z,22.97
2023-05-12T06:56:49.554Z,22.95
2023-05-12T06:57:49.531Z,22.95
2023-05-12T06:58:49.573Z,22.95
2023-05-12T06:59:49.452Z,22.93
2023-05-12T07:00:49.391Z,22.92
2023-05-12T07:01:49.507Z,22.89
2023-05-12T07:02:49.327Z,22.87
2023-05-12T07:03:49.348Z,22.86
2023-05-12T07:04:49.235Z,22.86
2023-05-12T07:05:49.272Z,22.85
2023-05-12T07:06:49.165Z,22.83
2023-05-12T07:07:49.147Z,22.83
2023-05-12T07:08:49.100Z,22.82
2023-05-12T07:09:49.107Z,22.81
2023-05-12T07:10:49.128Z,22.80
2023-05-12T07:11:49.097Z,22.79
2023-05-12T07:12:49.074Z,22.79
2023-05-12T07:13:49.003Z,22.78
2023-05-12T07:14:48.962Z,22.78
2023-05-12T07:15:48.941Z,22.77
2023-05-12T07:16:48.896Z,22.79
2023-05-12T07:17:48.988Z,22.78
2023-05-12T07:18:49.525Z,22.77
2023-05-12T07:19:48.804Z,22.77
2023-05-12T07:20:48.740Z,22.77
2023-05-12T07:21:48.751Z,22.76
2023-05-12T07:22:48.676Z,22.76
2023-05-12T07:23:48.637Z,22.77
2023-05-12T07:24:48.660Z,22.76
2023-05-12T07:25:48.645Z,22.75
2023-05-12T07:26:48.521Z,22.76
2023-05-12T07:27:48.508Z,22.75
2023-05-12T07:28:48.482Z,22.76
2023-05-12T07:29:48.452Z,22.76
2023-05-12T07:30:48.452Z,22.76
2023-05-12T07:31:48.379Z,22.77
2023-05-12T07:32:48.388Z,22.79
2023-05-12T07:33:48.317Z,22.79
2023-05-12T07:34:48.315Z,22.79
2023-05-12T07:35:48.302Z,22.80
2023-05-12T07:36:48.261Z,22.80
2023-05-12T07:37:48.293Z,22.79
2023-05-12T07:38:48.221Z,22.80
2023-05-12T07:39:48.212Z,22.85
2023-05-12T07:40:48.261Z,22.87
2023-05-12T07:41:48.181Z,22.88
2023-05-12T07:42:48.175Z,22.94
2023-05-12T07:43:55.187Z,22.99
2023-05-12T07:44:48.093Z,23.01
2023-05-12T07:45:48.074Z,23.05
2023-05-12T07:46:48.162Z,23.08
2023-05-12T07:47:48.084Z,23.11
2023-05-12T07:48:47.974Z,23.14
2023-05-12T07:49:47.947Z,23.15
2023-05-12T07:50:47.932Z,23.18
2023-05-12T07:51:47.939Z,23.21
2023-05-12T07:52:48.016Z,23.24
2023-05-12T07:53:47.892Z,23.25
2023-05-12T07:54:47.741Z,23.28
2023-05-12T07:55:47.699Z,23.32
2023-05-12T07:56:47.673Z,23.37
2023-05-12T07:57:47.613Z,23.38
2023-05-12T07:58:47.785Z,23.42
2023-05-12T07:59:47.554Z,23.46
2023-05-12T08:00:47.472Z,23.46
2023-05-12T08:01:47.499Z,23.50
2023-05-12T08:02:47.778Z,23.54
2023-05-12T08:03:47.436Z,23.56
2023-05-12T08:04:47.309Z,23.58
2023-05-12T08:05:47.270Z,23.61
2023-05-12T08:06:47.211Z,23.61
2023-05-12T08:07:47.196Z,23.62
2023-05-12T08:08:47.151Z,23.65
2023-05-12T08:09:47.076Z,23.66
2023-05-12T08:10:47.117Z,23.68
2023-05-12T08:11:50.017Z,23.68
2023-05-12T08:12:46.940Z,23.71
2023-05-12T08:13:46.889Z,23.72
2023-05-12T08:14:46.854Z,23.77
2023-05-12T08:15:46.868Z,23.79
2023-05-12T08:16:46.770Z,23.81
2023-05-12T08:17:47.566Z,23.81
2023-05-12T08:18:46.700Z,23.81
2023-05-12T08:19:46.574Z,23.82
2023-05-12T08:20:46.612Z,23.82
2023-05-12T08:21:46.492Z,23.82
2023-05-12T08:22:46.421Z,23.83
2023-05-12T08:23:46.376Z,23.80
2023-05-12T08:24:46.347Z,23.78
2023-05-12T08:25:46.490Z,23.77
2023-05-12T08:26:46.237Z,23.76
2023-05-12T08:27:46.190Z,23.74
2023-05-12T08:28:46.155Z,23.72
2023-05-12T08:29:46.112Z,23.69
2023-05-12T08:30:46.149Z,23.65
2023-05-12T08:31:46.019Z,23.61
2023-05-12T08:32:46.060Z,23.57
2023-05-12T08:33:48.296Z,23.54
2023-05-12T08:34:46.003Z,23.52
2023-05-12T08:35:45.955Z,23.51
2023-05-12T08:36:45.851Z,23.48
2023-05-12T08:37:45.822Z,23.47
2023-05-12T08:38:45.766Z,23.46
2023-05-12T08:39:46.492Z,23.44
2023-05-12T08:40:46.470Z,23.43
2023-05-12T08:41:45.720Z,23.42
2023-05-12T08:42:45.999Z,23.39
2023-05-12T08:43:45.523Z,23.38
2023-05-12T08:44:45.703Z,23.35
2023-05-12T08:45:45.662Z,23.33
2023-05-12T08:46:45.481Z,23.33
2023-05-12T08:47:45.593Z,23.31
2023-05-12T08:48:46.006Z,23.31
2023-05-12T08:49:45.497Z,23.34
2023-05-12T08:50:45.275Z,23.38
2023-05-12T08:51:48.072Z,23.39
2023-05-12T08:52:46.114Z,23.44
2023-05-12T08:53:45.101Z,23.46
2023-05-12T08:54:55.060Z,23.48
2023-05-12T08:55:57.088Z,23.50
2023-05-12T08:57:44.910Z,23.54
2023-05-12T08:58:44.872Z,23.60
2023-05-12T08:59:44.858Z,23.61
2023-05-12T09:00:44.857Z,23.65
2023-05-12T09:01:44.833Z,23.67
2023-05-12T09:02:52.979Z,23.70
2023-05-12T09:03:45.658Z,23.73
2023-05-12T09:04:44.657Z,23.76
2023-05-12T09:05:44.586Z,23.78
2023-05-12T09:06:45.030Z,23.79
2023-05-12T09:07:44.465Z,23.82
2023-05-12T09:08:44.405Z,23.81
2023-05-12T09:09:44.370Z,23.85
2023-05-12T09:10:44.337Z,23.88
2023-05-12T09:11:44.274Z,23.90
2023-05-12T09:12:44.209Z,23.92
2023-05-12T09:13:44.205Z,23.93
2023-05-12T09:14:44.109Z,23.95
2023-05-12T09:15:44.068Z,23.96
2023-05-12T09:16:44.106Z,23.97
2023-05-12T09:17:44.006Z,23.97
2023-05-12T09:18:43.968Z,23.99
2023-05-12T09:19:43.857Z,24.00
2023-05-12T09:20:43.846Z,23.99
2023-05-12T09:21:43.751Z,23.97
2023-05-12T09:22:43.722Z,23.97
2023-05-12T09:23:43.643Z,23.96
2023-05-12T09:24:43.613Z,23.95
2023-05-12T09:25:43.572Z,23.95
2023-05-12T09:26:43.991Z,23.94
2023-05-12T09:27:43.438Z,23.95
2023-05-12T09:28:43.407Z,23.95
2023-05-12T09:29:55.571Z,23.95
2023-05-12T09:30:44.545Z,23.95
2023-05-12T09:31:43.280Z,23.94
2023-05-12T09:32:43.216Z,23.95
2023-05-12T09:33:43.162Z,23.93
2023-05-12T09:34:43.118Z,23.94
2023-05-12T09:35:43.072Z,23.93
2023-05-12T09:36:42.997Z,23.93
2023-05-12T09:37:42.964Z,23.93
2023-05-12T09:38:42.932Z,23.93
2023-05-12T09:39:42.856Z,23.92
2023-05-12T09:40:42.817Z,23.94
2023-05-12T09:41:42.736Z,23.95
2023-05-12T09:42:42.694Z,23.96
2023-05-12T09:43:42.662Z,23.98
2023-05-12T09:44:42.593Z,23.99
2023-05-12T09:45:42.587Z,24.04
2023-05-12T09:46:42.535Z,24.05
2023-05-12T09:47:42.465Z,24.09
2023-05-12T09:48:42.615Z,24.11
2023-05-12T09:49:42.369Z,24.14
2023-05-12T09:50:47.446Z,24.14
2023-05-12T09:51:42.203Z,24.16
2023-05-12T09:52:42.430Z,24.18
2023-05-12T09:53:42.202Z,24.19
2023-05-12T09:54:42.071Z,24.19
2023-05-12T09:55:42.553Z,24.18
2023-05-12T09:56:42.651Z,24.22
2023-05-12T09:57:42.577Z,24.18
2023-05-12T09:58:42.201Z,24.17
2023-05-12T09:59:43.789Z,24.15
2023-05-12T10:01:41.962Z,24.14
2023-05-12T10:02:41.913Z,24.14
2023-05-12T10:03:41.776Z,24.14
2023-05-12T10:04:41.798Z,24.14
2023-05-12T10:05:41.598Z,24.14
2023-05-12T10:06:42.590Z,24.13
2023-05-12T10:07:41.538Z,24.13
2023-05-12T10:08:42.054Z,24.13
2023-05-12T10:09:41.352Z,24.13
2023-05-12T10:10:41.333Z,24.13
2023-05-12T10:11:41.376Z,24.14
2023-05-12T10:12:41.248Z,24.13
2023-05-12T10:13:41.258Z,24.13
2023-05-12T10:14:41.101Z,24.13
2023-05-12T10:15:41.053Z,24.14
2023-05-12T10:16:41.003Z,24.14
2023-05-12T10:17:41.659Z,24.14
2023-05-12T10:18:40.941Z,24.14
2023-05-12T10:19:40.832Z,24.13
2023-05-12T10:20:40.756Z,24.13
2023-05-12T10:21:40.781Z,24.13
2023-05-12T10:22:40.675Z,24.14
2023-05-12T10:23:40.590Z,24.14
2023-05-12T10:24:40.545Z,24.13
2023-05-12T10:25:40.580Z,24.14
2023-05-12T10:26:40.415Z,24.14
2023-05-12T10:27:40.336Z,24.14
2023-05-12T10:28:40.307Z,24.16
2023-05-12T10:29:40.247Z,24.17
2023-05-12T10:30:40.273Z,24.20
2023-05-12T10:31:40.247Z,24.22
2023-05-12T10:32:40.160Z,24.25
2023-05-12T10:33:40.012Z,24.27
2023-05-12T10:34:39.929Z,24.29
2023-05-12T10:35:39.900Z,24.30
2023-05-12T10:36:40.549Z,24.28
2023-05-12T10:37:39.745Z,24.30
2023-05-12T10:38:39.690Z,24.32
2023-05-12T10:39:39.681Z,24.32
2023-05-12T10:40:39.579Z,24.33
2023-05-12T10:41:39.621Z,24.36
2023-05-12T10:42:39.475Z,24.39
2023-05-12T10:43:39.394Z,24.38
2023-05-12T10:44:39.394Z,24.35
2023-05-12T10:45:39.290Z,24.33
2023-05-12T10:46:39.231Z,24.29
2023-05-12T10:47:39.173Z,24.27
2023-05-12T10:48:39.097Z,24.28
2023-05-12T10:49:39.041Z,24.29
2023-05-12T10:50:38.961Z,24.29
2023-05-12T10:51:39.529Z,24.29
2023-05-12T10:52:39.195Z,24.31
2023-05-12T10:53:49.242Z,24.32
2023-05-12T10:54:38.756Z,24.33
2023-05-12T10:55:39.574Z,24.34
2023-05-12T10:56:38.881Z,24.34
2023-05-12T10:57:38.925Z,24.35
2023-05-12T10:58:38.742Z,24.37
2023-05-12T10:59:38.855Z,24.37
2023-05-12T11:00:38.958Z,24.38
2023-05-12T11:01:39.310Z,24.39
2023-05-12T11:02:39.658Z,24.39
2023-05-12T11:03:38.488Z,24.39
2023-05-12T11:04:38.636Z,24.40
2023-05-12T11:05:38.341Z,24.41
2023-05-12T11:06:39.147Z,24.41
2023-05-12T11:07:38.108Z,24.41
2023-05-12T11:08:38.401Z,24.41
2023-05-12T11:09:45.253Z,24.41
2023-05-12T11:10:39.748Z,24.40
2023-05-12T11:11:38.492Z,24.42
2023-05-12T11:12:38.153Z,24.42
2023-05-12T11:13:37.667Z,24.41
2023-05-12T11:14:37.615Z,24.41
2023-05-12T11:15:38.177Z,24.43
2023-05-12T11:16:37.513Z,24.44
2023-05-12T11:17:37.478Z,24.44
2023-05-12T11:18:37.402Z,24.45
2023-05-12T11:19:37.355Z,24.46
2023-05-12T11:20:37.299Z,24.46
2023-05-12T11:21:38.093Z,24.48
2023-05-12T11:22:37.331Z,24.48
2023-05-12T11:23:37.272Z,24.49
2023-05-12T11:24:37.234Z,24.46
2023-05-12T11:25:37.307Z,24.50
2023-05-12T11:26:37.138Z,24.52
2023-05-12T11:27:37.100Z,24.52
2023-05-12T11:28:37.212Z,24.54
2023-05-12T11:29:37.328Z,24.54
2023-05-12T11:30:37.125Z,24.51
2023-05-12T11:31:37.064Z,24.48
2023-05-12T11:32:37.003Z,24.45
2023-05-12T11:33:37.039Z,24.40
2023-05-12T11:34:36.908Z,24.38
2023-05-12T11:35:36.840Z,24.35
2023-05-12T11:36:37.625Z,24.33
2023-05-12T11:37:36.787Z,24.30
2023-05-12T11:38:36.663Z,24.29
2023-05-12T11:39:36.620Z,24.29
2023-05-12T11:40:36.554Z,24.27
2023-05-12T11:41:36.480Z,24.24
2023-05-12T11:42:36.434Z,24.22
2023-05-12T11:43:36.371Z,24.20
2023-05-12T11:44:36.341Z,24.19
2023-05-12T11:45:36.321Z,24.18
2023-05-12T11:46:36.227Z,24.18
2023-05-12T11:47:36.194Z,24.16
2023-05-12T11:48:36.112Z,24.15
2023-05-12T11:49:36.062Z,24.15
2023-05-12T11:50:36.025Z,24.15
2023-05-12T11:51:35.948Z,24.16
2023-05-12T11:52:35.903Z,24.15
2023-05-12T11:53:35.859Z,24.15
2023-05-12T11:54:35.796Z,24.14
2023-05-12T11:55:35.732Z,24.14
2023-05-12T11:56:35.730Z,24.14
2023-05-12T11:57:35.735Z,24.14
2023-05-12T11:58:35.832Z,24.14
2023-05-12T11:59:35.549Z,24.14
2023-05-12T12:00:35.543Z,24.14
2023-05-12T12:01:36.094Z,24.14
2023-05-12T12:02:35.501Z,24.15
2023-05-12T12:03:35.599Z,24.15
2023-05-12T12:04:35.360Z,24.16
2023-05-12T12:05:35.182Z,24.16
2023-05-12T12:06:35.135Z,24.16
2023-05-12T12:07:35.069Z,24.15
2023-05-12T12:08:35.042Z,24.14
2023-05-12T12:09:34.971Z,24.14
2023-05-12T12:10:34.881Z,24.14
2023-05-12T12:11:34.841Z,24.12
2023-05-12T12:12:34.785Z,24.12
2023-05-12T12:13:34.709Z,24.13
2023-05-12T12:14:35.693Z,24.13
2023-05-12T12:15:34.603Z,24.13
2023-05-12T12:16:34.619Z,24.14
2023-05-12T12:17:34.571Z,24.14
2023-05-12T12:18:34.478Z,24.14
2023-05-12T12:19:34.372Z,24.15
2023-05-12T12:20:34.282Z,24.15
2023-05-12T12:21:34.236Z,24.15
2023-05-12T12:22:34.398Z,24.15
2023-05-12T12:23:47.342Z,24.15
2023-05-12T12:24:35.078Z,24.14
2023-05-12T12:25:34.057Z,24.14
2023-05-12T12:26:33.937Z,24.14
2023-05-12T12:27:33.856Z,24.15
2023-05-12T12:28:33.824Z,24.16
2023-05-12T12:29:33.784Z,24.17
2023-05-12T12:30:33.711Z,24.16
2023-05-12T12:31:33.662Z,24.15
2023-05-12T12:32:33.639Z,24.15
2023-05-12T12:33:33.612Z,24.13
2023-05-12T12:34:33.473Z,24.14
2023-05-12T12:35:33.470Z,24.15
2023-05-12T12:36:33.362Z,24.16
2023-05-12T12:37:33.293Z,24.16
2023-05-12T12:38:33.274Z,24.16
2023-05-12T12:39:33.170Z,24.16
2023-05-12T12:40:33.110Z,24.14
2023-05-12T12:41:33.060Z,24.15
2023-05-12T12:42:32.989Z,24.16
2023-05-12T12:43:32.971Z,24.17
2023-05-12T12:44:32.879Z,24.18
2023-05-12T12:45:32.850Z,24.18
2023-05-12T12:46:32.780Z,24.17
2023-05-12T12:47:32.784Z,24.17
2023-05-12T12:48:32.629Z,24.17
2023-05-12T12:49:32.643Z,24.16
2023-05-12T12:50:32.570Z,24.15
2023-05-12T12:51:44.575Z,24.14
2023-05-12T12:52:33.418Z,24.13
2023-05-12T12:53:32.357Z,24.11
2023-05-12T12:54:32.342Z,24.10
2023-05-12T12:55:32.409Z,24.09